sensor_id;sensor_type;location;lat;lon;timestamp;P1;durP1;ratioP1;P2;durP2;ratioP2
36303;SDS011;22335;49.800;8.596;2023-05-24T00:02:42;13.05;;;4.65;;
36303;SDS011;22335;49.800;8.596;2023-05-24T00:09:25;9.82;;;4.55;;
36303;SDS011;22335;49.800;8.596;2023-05-24T00:16:09;14.00;;;4.35;;
36303;SDS011;22335;49.800;8.596;2023-05-24T00:22:54;10.00;;;3.92;;
36303;SDS011;22335;49.800;8.596;2023-05-24T00:29:37;11.65;;;3.85;;
36303;SDS011;22335;49.800;8.596;2023-05-24T00:36:21;10.13;;;4.25;;
36303;SDS011;22335;49.800;8.596;2023-05-24T00:43:06;11.43;;;4.60;;
36303;SDS011;22335;49.800;8.596;2023-05-24T00:49:49;11.52;;;4.50;;
36303;SDS011;22335;49.800;8.596;2023-05-24T00:56:33;12.43;;;4.38;;
36303;SDS011;22335;49.800;8.596;2023-05-24T01:03:18;11.23;;;3.95;;
36303;SDS011;22335;49.800;8.596;2023-05-24T01:10:03;10.80;;;4.30;;
36303;SDS011;22335;49.800;8.596;2023-05-24T01:16:59;11.65;;;3.97;;
36303;SDS011;22335;49.800;8.596;2023-05-24T01:23:54;9.70;;;3.75;;
36303;SDS011;22335;49.800;8.596;2023-05-24T01:30:54;11.90;;;5.15;;
36303;SDS011;22335;49.800;8.596;2023-05-24T01:37:38;9.75;;;3.95;;
36303;SDS011;22335;49.800;8.596;2023-05-24T01:44:23;7.50;;;4.00;;
36303;SDS011;22335;49.800;8.596;2023-05-24T01:51:15;11.43;;;4.43;;
36303;SDS011;22335;49.800;8.596;2023-05-24T01:58:03;12.18;;;3.78;;
36303;SDS011;22335;49.800;8.596;2023-05-24T02:04:48;13.77;;;4.70;;
36303;SDS011;22335;49.800;8.596;2023-05-24T02:11:33;14.02;;;4.63;;
36303;SDS011;22335;49.800;8.596;2023-05-24T02:18:17;12.80;;;4.18;;
36303;SDS011;22335;49.800;8.596;2023-05-24T02:25:00;13.57;;;4.40;;
36303;SDS011;22335;49.800;8.596;2023-05-24T02:31:45;10.35;;;3.92;;
36303;SDS011;22335;49.800;8.596;2023-05-24T02:38:31;8.65;;;3.60;;
36303;SDS011;22335;49.800;8.596;2023-05-24T03:00:18;9.80;;;3.65;;
36303;SDS011;22335;49.800;8.596;2023-05-24T03:07:02;12.52;;;4.18;;
36303;SDS011;22335;49.800;8.596;2023-05-24T03:13:46;9.90;;;4.00;;
36303;SDS011;22335;49.800;8.596;2023-05-24T03:20:31;9.50;;;3.78;;
36303;SDS011;22335;49.800;8.596;2023-05-24T03:27:15;10.77;;;4.20;;
36303;SDS011;22335;49.800;8.596;2023-05-24T03:33:59;10.65;;;3.78;;
36303;SDS011;22335;49.800;8.596;2023-05-24T03:40:46;10.18;;;4.03;;
36303;SDS011;22335;49.800;8.596;2023-05-24T03:47:31;13.00;;;3.78;;
36303;SDS011;22335;49.800;8.596;2023-05-24T03:54:14;11.13;;;3.65;;
36303;SDS011;22335;49.800;8.596;2023-05-24T04:01:00;16.95;;;8.88;;
36303;SDS011;22335;49.800;8.596;2023-05-24T04:07:43;23.55;;;16.73;;
36303;SDS011;22335;49.800;8.596;2023-05-24T04:14:27;15.98;;;4.60;;
36303;SDS011;22335;49.800;8.596;2023-05-24T04:21:12;15.63;;;3.50;;
36303;SDS011;22335;49.800;8.596;2023-05-24T04:27:55;10.27;;;3.55;;
36303;SDS011;22335;49.800;8.596;2023-05-24T04:34:40;8.13;;;3.63;;
36303;SDS011;22335;49.800;8.596;2023-05-24T04:41:26;12.38;;;3.85;;
36303;SDS011;22335;49.800;8.596;2023-05-24T04:48:12;10.35;;;3.72;;
36303;SDS011;22335;49.800;8.596;2023-05-24T04:54:55;10.35;;;3.30;;
36303;SDS011;22335;49.800;8.596;2023-05-24T05:01:41;10.95;;;5.25;;
36303;SDS011;22335;49.800;8.596;2023-05-24T05:08:25;16.75;;;6.68;;
36303;SDS011;22335;49.800;8.596;2023-05-24T05:15:09;12.07;;;5.55;;
36303;SDS011;22335;49.800;8.596;2023-05-24T05:21:57;8.95;;;6.07;;
36303;SDS011;22335;49.800;8.596;2023-05-24T05:28:41;10.23;;;5.73;;
36303;SDS011;22335;49.800;8.596;2023-05-24T05:35:27;14.15;;;6.13;;
36303;SDS011;22335;49.800;8.596;2023-05-24T05:42:12;15.02;;;6.40;;
36303;SDS011;22335;49.800;8.596;2023-05-24T05:48:56;14.88;;;6.10;;
36303;SDS011;22335;49.800;8.596;2023-05-24T05:55:39;10.05;;;6.30;;
36303;SDS011;22335;49.800;8.596;2023-05-24T06:02:24;12.35;;;5.40;;
36303;SDS011;22335;49.800;8.596;2023-05-24T06:09:07;13.40;;;6.18;;
36303;SDS011;22335;49.800;8.596;2023-05-24T06:15:51;14.55;;;4.70;;
36303;SDS011;22335;49.800;8.596;2023-05-24T06:22:40;9.07;;;5.28;;
36303;SDS011;22335;49.800;8.596;2023-05-24T06:29:24;22.58;;;6.80;;
36303;SDS011;22335;49.800;8.596;2023-05-24T06:36:07;10.02;;;5.80;;
36303;SDS011;22335;49.800;8.596;2023-05-24T06:42:52;11.27;;;5.97;;
36303;SDS011;22335;49.800;8.596;2023-05-24T06:49:36;13.30;;;6.55;;
36303;SDS011;22335;49.800;8.596;2023-05-24T06:56:19;11.88;;;6.78;;
36303;SDS011;22335;49.800;8.596;2023-05-24T07:03:04;13.82;;;6.28;;
36303;SDS011;22335;49.800;8.596;2023-05-24T07:09:48;13.07;;;7.00;;
36303;SDS011;22335;49.800;8.596;2023-05-24T07:16:32;17.67;;;6.78;;
36303;SDS011;22335;49.800;8.596;2023-05-24T07:23:16;14.25;;;6.30;;
36303;SDS011;22335;49.800;8.596;2023-05-24T07:30:00;17.92;;;6.72;;
36303;SDS011;22335;49.800;8.596;2023-05-24T07:36:43;11.70;;;6.13;;
36303;SDS011;22335;49.800;8.596;2023-05-24T07:43:30;7.45;;;5.68;;
36303;SDS011;22335;49.800;8.596;2023-05-24T07:50:13;9.90;;;6.28;;
36303;SDS011;22335;49.800;8.596;2023-05-24T07:56:57;12.70;;;5.82;;
36303;SDS011;22335;49.800;8.596;2023-05-24T08:03:43;12.55;;;6.40;;
36303;SDS011;22335;49.800;8.596;2023-05-24T08:10:27;12.17;;;7.03;;
36303;SDS011;22335;49.800;8.596;2023-05-24T08:17:11;12.05;;;6.70;;
36303;SDS011;22335;49.800;8.596;2023-05-24T08:23:56;12.68;;;6.30;;
36303;SDS011;22335;49.800;8.596;2023-05-24T08:30:40;12.43;;;7.60;;
36303;SDS011;22335;49.800;8.596;2023-05-24T08:37:23;12.38;;;6.65;;
36303;SDS011;22335;49.800;8.596;2023-05-24T08:44:08;16.02;;;6.90;;
36303;SDS011;22335;49.800;8.596;2023-05-24T08:50:55;13.15;;;6.80;;
36303;SDS011;22335;49.800;8.596;2023-05-24T08:57:40;13.27;;;7.13;;
36303;SDS011;22335;49.800;8.596;2023-05-24T09:04:25;13.43;;;7.30;;
36303;SDS011;22335;49.800;8.596;2023-05-24T09:11:09;11.88;;;7.55;;
36303;SDS011;22335;49.800;8.596;2023-05-24T09:17:53;11.32;;;7.15;;
36303;SDS011;22335;49.800;8.596;2023-05-24T09:24:40;14.27;;;7.18;;
36303;SDS011;22335;49.800;8.596;2023-05-24T09:31:31;12.38;;;7.63;;
36303;SDS011;22335;49.800;8.596;2023-05-24T09:38:15;17.05;;;7.63;;
36303;SDS011;22335;49.800;8.596;2023-05-24T09:45:02;13.43;;;6.90;;
36303;SDS011;22335;49.800;8.596;2023-05-24T09:51:50;14.68;;;6.78;;
36303;SDS011;22335;49.800;8.596;2023-05-24T09:58:34;13.35;;;6.93;;
36303;SDS011;22335;49.800;8.596;2023-05-24T10:05:19;11.77;;;6.95;;
36303;SDS011;22335;49.800;8.596;2023-05-24T10:12:04;13.93;;;7.03;;
36303;SDS011;22335;49.800;8.596;2023-05-24T10:18:49;12.50;;;7.10;;
36303;SDS011;22335;49.800;8.596;2023-05-24T10:25:37;11.43;;;6.93;;
36303;SDS011;22335;49.800;8.596;2023-05-24T10:32:28;11.30;;;6.75;;
36303;SDS011;22335;49.800;8.596;2023-05-24T10:39:18;12.90;;;6.72;;
36303;SDS011;22335;49.800;8.596;2023-05-24T10:46:04;9.93;;;7.20;;
36303;SDS011;22335;49.800;8.596;2023-05-24T10:52:50;11.63;;;6.80;;
36303;SDS011;22335;49.800;8.596;2023-05-24T10:59:56;9.23;;;6.20;;
36303;SDS011;22335;49.800;8.596;2023-05-24T11:06:46;16.23;;;6.68;;
36303;SDS011;22335;49.800;8.596;2023-05-24T11:13:31;13.88;;;7.43;;
36303;SDS011;22335;49.800;8.596;2023-05-24T11:20:15;15.10;;;6.78;;
36303;SDS011;22335;49.800;8.596;2023-05-24T11:27:01;10.32;;;6.68;;
36303;SDS011;22335;49.800;8.596;2023-05-24T11:33:46;11.93;;;6.10;;
36303;SDS011;22335;49.800;8.596;2023-05-24T11:40:29;10.65;;;6.38;;
36303;SDS011;22335;49.800;8.596;2023-05-24T11:47:14;16.05;;;6.93;;
36303;SDS011;22335;49.800;8.596;2023-05-24T11:53:58;15.13;;;6.18;;
36303;SDS011;22335;49.800;8.596;2023-05-24T12:00:42;11.02;;;6.00;;
36303;SDS011;22335;49.800;8.596;2023-05-24T12:07:27;8.63;;;5.55;;
36303;SDS011;22335;49.800;8.596;2023-05-24T12:14:11;11.23;;;5.60;;
36303;SDS011;22335;49.800;8.596;2023-05-24T12:20:54;12.80;;;6.15;;
36303;SDS011;22335;49.800;8.596;2023-05-24T12:27:43;7.35;;;5.20;;
36303;SDS011;22335;49.800;8.596;2023-05-24T12:34:28;10.35;;;5.70;;
36303;SDS011;22335;49.800;8.596;2023-05-24T12:41:11;12.57;;;6.20;;
36303;SDS011;22335;49.800;8.596;2023-05-24T12:47:57;10.18;;;6.50;;
36303;SDS011;22335;49.800;8.596;2023-05-24T12:54:42;7.35;;;5.78;;
36303;SDS011;22335;49.800;8.596;2023-05-24T13:01:26;9.07;;;6.03;;
36303;SDS011;22335;49.800;8.596;2023-05-24T13:08:12;10.93;;;5.75;;
36303;SDS011;22335;49.800;8.596;2023-05-24T13:14:56;10.73;;;6.85;;
36303;SDS011;22335;49.800;8.596;2023-05-24T13:21:39;10.60;;;6.72;;
36303;SDS011;22335;49.800;8.596;2023-05-24T13:28:25;10.63;;;6.05;;
36303;SDS011;22335;49.800;8.596;2023-05-24T13:35:10;7.97;;;5.97;;
36303;SDS011;22335;49.800;8.596;2023-05-24T13:41:54;13.23;;;6.47;;
36303;SDS011;22335;49.800;8.596;2023-05-24T13:48:39;9.55;;;5.90;;
36303;SDS011;22335;49.800;8.596;2023-05-24T13:55:23;10.70;;;6.57;;
36303;SDS011;22335;49.800;8.596;2023-05-24T14:02:08;11.82;;;6.55;;
36303;SDS011;22335;49.800;8.596;2023-05-24T14:08:54;10.05;;;6.43;;
36303;SDS011;22335;49.800;8.596;2023-05-24T14:15:38;7.95;;;6.00;;
36303;SDS011;22335;49.800;8.596;2023-05-24T14:22:22;11.23;;;6.53;;
36303;SDS011;22335;49.800;8.596;2023-05-24T14:29:08;8.95;;;5.85;;
36303;SDS011;22335;49.800;8.596;2023-05-24T14:35:52;8.68;;;5.93;;
36303;SDS011;22335;49.800;8.596;2023-05-24T14:42:35;7.93;;;5.90;;
36303;SDS011;22335;49.800;8.596;2023-05-24T14:49:20;10.70;;;6.45;;
36303;SDS011;22335;49.800;8.596;2023-05-24T14:56:04;11.20;;;6.60;;
36303;SDS011;22335;49.800;8.596;2023-05-24T15:02:49;9.80;;;6.40;;
36303;SDS011;22335;49.800;8.596;2023-05-24T15:09:34;9.90;;;6.10;;
36303;SDS011;22335;49.800;8.596;2023-05-24T15:16:17;8.82;;;6.25;;
36303;SDS011;22335;49.800;8.596;2023-05-24T15:23:01;10.20;;;6.70;;
36303;SDS011;22335;49.800;8.596;2023-05-24T15:29:46;12.18;;;6.80;;
36303;SDS011;22335;49.800;8.596;2023-05-24T15:36:30;10.48;;;6.90;;
36303;SDS011;22335;49.800;8.596;2023-05-24T15:43:16;12.70;;;7.07;;
36303;SDS011;22335;49.800;8.596;2023-05-24T15:50:02;9.77;;;6.35;;
36303;SDS011;22335;49.800;8.596;2023-05-24T15:56:46;10.90;;;7.50;;
36303;SDS011;22335;49.800;8.596;2023-05-24T16:03:30;9.70;;;6.93;;
36303;SDS011;22335;49.800;8.596;2023-05-24T16:10:15;8.65;;;5.85;;
36303;SDS011;22335;49.800;8.596;2023-05-24T16:16:59;8.88;;;6.45;;
36303;SDS011;22335;49.800;8.596;2023-05-24T16:23:46;7.03;;;5.72;;
36303;SDS011;22335;49.800;8.596;2023-05-24T16:30:31;9.82;;;6.20;;
36303;SDS011;22335;49.800;8.596;2023-05-24T16:37:17;8.55;;;6.00;;
36303;SDS011;22335;49.800;8.596;2023-05-24T16:44:00;9.45;;;6.07;;
36303;SDS011;22335;49.800;8.596;2023-05-24T16:50:45;12.40;;;6.25;;
36303;SDS011;22335;49.800;8.596;2023-05-24T16:57:30;7.70;;;6.38;;
36303;SDS011;22335;49.800;8.596;2023-05-24T17:04:14;9.50;;;6.65;;
36303;SDS011;22335;49.800;8.596;2023-05-24T17:10:58;9.27;;;6.28;;
36303;SDS011;22335;49.800;8.596;2023-05-24T17:17:42;8.75;;;6.05;;
36303;SDS011;22335;49.800;8.596;2023-05-24T17:24:26;10.43;;;7.03;;
36303;SDS011;22335;49.800;8.596;2023-05-24T17:31:11;10.48;;;6.35;;
36303;SDS011;22335;49.800;8.596;2023-05-24T17:37:56;8.85;;;6.35;;
36303;SDS011;22335;49.800;8.596;2023-05-24T17:44:39;9.48;;;6.32;;
36303;SDS011;22335;49.800;8.596;2023-05-24T17:51:24;10.07;;;6.97;;
36303;SDS011;22335;49.800;8.596;2023-05-24T17:58:08;10.60;;;6.50;;
36303;SDS011;22335;49.800;8.596;2023-05-24T18:04:51;11.20;;;6.63;;
36303;SDS011;22335;49.800;8.596;2023-05-24T18:11:37;9.55;;;6.53;;
36303;SDS011;22335;49.800;8.596;2023-05-24T18:18:21;12.33;;;6.77;;
36303;SDS011;22335;49.800;8.596;2023-05-24T18:25:04;10.80;;;6.68;;
36303;SDS011;22335;49.800;8.596;2023-05-24T18:31:51;11.05;;;6.85;;
36303;SDS011;22335;49.800;8.596;2023-05-24T18:38:34;12.43;;;6.45;;
36303;SDS011;22335;49.800;8.596;2023-05-24T18:45:20;10.98;;;6.65;;
36303;SDS011;22335;49.800;8.596;2023-05-24T18:52:05;8.60;;;6.60;;
36303;SDS011;22335;49.800;8.596;2023-05-24T18:58:48;8.85;;;6.28;;
36303;SDS011;22335;49.800;8.596;2023-05-24T19:05:33;8.57;;;6.30;;
36303;SDS011;22335;49.800;8.596;2023-05-24T19:12:19;9.32;;;6.45;;
36303;SDS011;22335;49.800;8.596;2023-05-24T19:19:02;8.43;;;6.22;;
36303;SDS011;22335;49.800;8.596;2023-05-24T19:25:46;8.10;;;6.53;;
36303;SDS011;22335;49.800;8.596;2023-05-24T19:39:18;10.13;;;7.13;;
36303;SDS011;22335;49.800;8.596;2023-05-24T19:46:02;8.18;;;6.70;;
36303;SDS011;22335;49.800;8.596;2023-05-24T19:52:48;10.38;;;7.38;;
36303;SDS011;22335;49.800;8.596;2023-05-24T19:59:32;9.15;;;7.00;;
36303;SDS011;22335;49.800;8.596;2023-05-24T20:06:15;13.75;;;7.68;;
36303;SDS011;22335;49.800;8.596;2023-05-24T20:13:01;8.40;;;6.80;;
36303;SDS011;22335;49.800;8.596;2023-05-24T20:19:45;13.95;;;7.57;;
36303;SDS011;22335;49.800;8.596;2023-05-24T20:26:28;7.75;;;6.80;;
36303;SDS011;22335;49.800;8.596;2023-05-24T20:33:14;12.15;;;7.00;;
36303;SDS011;22335;49.800;8.596;2023-05-24T20:39:58;9.83;;;7.57;;
36303;SDS011;22335;49.800;8.596;2023-05-24T20:46:42;9.27;;;6.88;;
36303;SDS011;22335;49.800;8.596;2023-05-24T20:53:27;10.05;;;7.07;;
36303;SDS011;22335;49.800;8.596;2023-05-24T21:00:11;11.10;;;7.25;;
36303;SDS011;22335;49.800;8.596;2023-05-24T21:06:57;12.65;;;6.82;;
36303;SDS011;22335;49.800;8.596;2023-05-24T21:13:42;10.50;;;7.50;;
36303;SDS011;22335;49.800;8.596;2023-05-24T21:20:26;8.20;;;7.40;;
36303;SDS011;22335;49.800;8.596;2023-05-24T21:27:10;16.20;;;7.47;;
36303;SDS011;22335;49.800;8.596;2023-05-24T21:33:54;10.75;;;7.45;;
36303;SDS011;22335;49.800;8.596;2023-05-24T21:40:38;12.60;;;7.35;;
36303;SDS011;22335;49.800;8.596;2023-05-24T21:47:21;9.40;;;7.63;;
36303;SDS011;22335;49.800;8.596;2023-05-24T21:54:06;10.45;;;7.00;;
36303;SDS011;22335;49.800;8.596;2023-05-24T22:00:50;11.32;;;7.05;;
36303;SDS011;22335;49.800;8.596;2023-05-24T22:07:33;16.70;;;7.63;;
36303;SDS011;22335;49.800;8.596;2023-05-24T22:14:18;10.68;;;7.93;;
36303;SDS011;22335;49.800;8.596;2023-05-24T22:21:02;10.13;;;7.80;;
36303;SDS011;22335;49.800;8.596;2023-05-24T22:27:46;14.35;;;8.13;;
36303;SDS011;22335;49.800;8.596;2023-05-24T22:34:31;13.75;;;7.60;;
36303;SDS011;22335;49.800;8.596;2023-05-24T22:41:15;12.38;;;7.65;;
36303;SDS011;22335;49.800;8.596;2023-05-24T22:47:59;9.43;;;7.32;;
36303;SDS011;22335;49.800;8.596;2023-05-24T22:54:45;11.10;;;7.03;;
36303;SDS011;22335;49.800;8.596;2023-05-24T23:01:29;9.77;;;7.60;;
36303;SDS011;22335;49.800;8.596;2023-05-24T23:08:13;13.45;;;7.50;;
36303;SDS011;22335;49.800;8.596;2023-05-24T23:14:59;10.02;;;7.20;;
36303;SDS011;22335;49.800;8.596;2023-05-24T23:21:42;17.38;;;7.60;;
36303;SDS011;22335;49.800;8.596;2023-05-24T23:28:26;11.20;;;8.25;;
36303;SDS011;22335;49.800;8.596;2023-05-24T23:35:11;11.63;;;7.13;;
36303;SDS011;22335;49.800;8.596;2023-05-24T23:41:54;12.98;;;8.77;;
36303;SDS011;22335;49.800;8.596;2023-05-24T23:48:38;12.20;;;9.02;;
36303;SDS011;22335;49.800;8.596;2023-05-24T23:55:23;14.88;;;7.60;;
